sensor_id;sensor_type;location;lat;lon;timestamp;temperature;humidity
55701;DHT22;41604;43.142;20.512;2024-03-23T00:53:24;179.70;2201.60
55701;DHT22;41604;43.142;20.512;2024-03-23T00:55:50;179.80;2176.00
55701;DHT22;41604;43.142;20.512;2024-03-23T01:20:09;179.70;2176.00
55701;DHT22;41604;43.142;20.512;2024-03-23T01:22:35;179.50;2227.20
55701;DHT22;41604;43.142;20.512;2024-03-23T01:25:01;179.20;2227.20
55701;DHT22;41604;43.142;20.512;2024-03-23T01:27:27;179.30;2201.60
55701;DHT22;41604;43.142;20.512;2024-03-23T01:29:52;179.20;2201.60
55701;DHT22;41604;43.142;20.512;2024-03-23T01:34:44;179.60;2227.20
55701;DHT22;41604;43.142;20.512;2024-03-23T01:37:10;179.30;2227.20
55701;DHT22;41604;43.142;20.512;2024-03-23T01:39:35;179.30;2227.20
55701;DHT22;41604;43.142;20.512;2024-03-23T01:42:01;154.50;2227.20
55701;DHT22;41604;43.142;20.512;2024-03-23T01:44:27;154.40;2227.20
55701;DHT22;41604;43.142;20.512;2024-03-23T01:46:53;154.50;2227.20
55701;DHT22;41604;43.142;20.512;2024-03-23T01:49:19;154.50;2227.20
55701;DHT22;41604;43.142;20.512;2024-03-23T01:51:45;154.40;2227.20
55701;DHT22;41604;43.142;20.512;2024-03-23T01:54:11;154.40;2227.20
55701;DHT22;41604;43.142;20.512;2024-03-23T01:56:37;154.40;2227.20
55701;DHT22;41604;43.142;20.512;2024-03-23T01:59:04;154.40;2227.20
55701;DHT22;41604;43.142;20.512;2024-03-23T02:01:30;154.20;2227.20
55701;DHT22;41604;43.142;20.512;2024-03-23T02:03:56;154.20;2252.80
55701;DHT22;41604;43.142;20.512;2024-03-23T02:06:22;154.20;2252.80
55701;DHT22;41604;43.142;20.512;2024-03-23T02:08:49;154.30;2252.80
55701;DHT22;41604;43.142;20.512;2024-03-23T02:11:15;154.40;2227.20
55701;DHT22;41604;43.142;20.512;2024-03-23T02:13:40;154.30;2252.80
55701;DHT22;41604;43.142;20.512;2024-03-23T02:16:06;154.30;2252.80
55701;DHT22;41604;43.142;20.512;2024-03-23T02:18:32;154.50;2227.20
55701;DHT22;41604;43.142;20.512;2024-03-23T02:20:58;154.50;2227.20
55701;DHT22;41604;43.142;20.512;2024-03-23T02:23:24;154.40;2227.20
55701;DHT22;41604;43.142;20.512;2024-03-23T02:25:50;179.20;2227.20
55701;DHT22;41604;43.142;20.512;2024-03-23T02:28:15;179.30;2201.60
55701;DHT22;41604;43.142;20.512;2024-03-23T02:30:42;179.30;2227.20
55701;DHT22;41604;43.142;20.512;2024-03-23T02:33:08;154.50;2227.20
55701;DHT22;41604;43.142;20.512;2024-03-23T02:35:34;154.20;2252.80
55701;DHT22;41604;43.142;20.512;2024-03-23T02:38:00;154.20;2252.80
55701;DHT22;41604;43.142;20.512;2024-03-23T02:40:25;154.10;2252.80
55701;DHT22;41604;43.142;20.512;2024-03-23T02:42:51;154.20;2252.80
55701;DHT22;41604;43.142;20.512;2024-03-23T02:45:17;154.00;2252.80
55701;DHT22;41604;43.142;20.512;2024-03-23T02:47:43;153.80;2252.80
55701;DHT22;41604;43.142;20.512;2024-03-23T02:50:09;153.80;2252.80
55701;DHT22;41604;43.142;20.512;2024-03-23T02:52:35;153.80;2252.80
55701;DHT22;41604;43.142;20.512;2024-03-23T02:55:00;154.10;2252.80
55701;DHT22;41604;43.142;20.512;2024-03-23T02:57:27;154.00;2252.80
55701;DHT22;41604;43.142;20.512;2024-03-23T02:59:53;153.90;2252.80
55701;DHT22;41604;43.142;20.512;2024-03-23T03:02:19;153.70;2252.80
55701;DHT22;41604;43.142;20.512;2024-03-23T03:04:45;153.70;2252.80
55701;DHT22;41604;43.142;20.512;2024-03-23T03:07:11;153.60;2252.80
55701;DHT22;41604;43.142;20.512;2024-03-23T04:22:42;153.70;2252.80
55701;DHT22;41604;43.142;20.512;2024-03-23T04:25:08;128.50;2252.80
55701;DHT22;41604;43.142;20.512;2024-03-23T04:27:36;128.20;2252.80
55701;DHT22;41604;43.142;20.512;2024-03-23T04:30:02;128.10;2252.80
55701;DHT22;41604;43.142;20.512;2024-03-23T04:32:29;103.30;2227.20
55701;DHT22;41604;43.142;20.512;2024-03-23T04:34:55;128.30;2252.80
55701;DHT22;41604;43.142;20.512;2024-03-23T04:37:21;128.20;2252.80
55701;DHT22;41604;43.142;20.512;2024-03-23T04:39:47;128.50;2252.80
55701;DHT22;41604;43.142;20.512;2024-03-23T04:42:14;128.40;2252.80
55701;DHT22;41604;43.142;20.512;2024-03-23T04:44:40;128.20;2252.80
55701;DHT22;41604;43.142;20.512;2024-03-23T04:47:05;128.10;2252.80
55701;DHT22;41604;43.142;20.512;2024-03-23T04:49:31;103.30;2227.20
55701;DHT22;41604;43.142;20.512;2024-03-23T04:51:57;128.20;2252.80
55701;DHT22;41604;43.142;20.512;2024-03-23T04:54:22;128.40;2252.80
55701;DHT22;41604;43.142;20.512;2024-03-23T04:56:48;128.70;2252.80
55701;DHT22;41604;43.142;20.512;2024-03-23T04:59:14;128.90;2252.80
55701;DHT22;41604;43.142;20.512;2024-03-23T05:01:39;128.40;2252.80
55701;DHT22;41604;43.142;20.512;2024-03-23T05:04:07;128.60;2252.80
55701;DHT22;41604;43.142;20.512;2024-03-23T05:06:33;128.70;2252.80
55701;DHT22;41604;43.142;20.512;2024-03-23T05:09:00;128.90;2252.80
55701;DHT22;41604;43.142;20.512;2024-03-23T05:11:27;153.60;2252.80
55701;DHT22;41604;43.142;20.512;2024-03-23T05:13:52;128.90;2252.80
55701;DHT22;41604;43.142;20.512;2024-03-23T05:16:18;128.80;2252.80
55701;DHT22;41604;43.142;20.512;2024-03-23T05:18:44;153.80;2252.80
55701;DHT22;41604;43.142;20.512;2024-03-23T05:21:09;128.60;2252.80
55701;DHT22;41604;43.142;20.512;2024-03-23T05:23:35;128.20;2252.80
55701;DHT22;41604;43.142;20.512;2024-03-23T05:26:00;128.30;2252.80
55701;DHT22;41604;43.142;20.512;2024-03-23T05:28:26;128.70;2252.80
55701;DHT22;41604;43.142;20.512;2024-03-23T05:30:55;128.60;2252.80
55701;DHT22;41604;43.142;20.512;2024-03-23T05:33:22;128.70;2252.80
55701;DHT22;41604;43.142;20.512;2024-03-23T05:35:55;128.80;2252.80
55701;DHT22;41604;43.142;20.512;2024-03-23T05:38:21;128.50;2252.80
55701;DHT22;41604;43.142;20.512;2024-03-23T05:40:56;128.50;2252.80
55701;DHT22;41604;43.142;20.512;2024-03-23T05:43:22;128.10;2252.80
55701;DHT22;41604;43.142;20.512;2024-03-23T05:45:57;128.20;2252.80
55701;DHT22;41604;43.142;20.512;2024-03-23T05:48:23;128.10;2252.80
55701;DHT22;41604;43.142;20.512;2024-03-23T05:50:49;128.20;2252.80
55701;DHT22;41604;43.142;20.512;2024-03-23T05:53:15;128.40;2252.80
55701;DHT22;41604;43.142;20.512;2024-03-23T05:55:41;128.60;2252.80
55701;DHT22;41604;43.142;20.512;2024-03-23T05:58:07;153.90;2252.80
55701;DHT22;41604;43.142;20.512;2024-03-23T06:00:32;153.90;2252.80
55701;DHT22;41604;43.142;20.512;2024-03-23T06:02:58;153.90;2252.80
55701;DHT22;41604;43.142;20.512;2024-03-23T06:05:24;154.00;2252.80
55701;DHT22;41604;43.142;20.512;2024-03-23T06:07:49;154.20;2252.80
55701;DHT22;41604;43.142;20.512;2024-03-23T06:10:15;154.50;2252.80
55701;DHT22;41604;43.142;20.512;2024-03-23T06:12:41;154.30;2252.80
55701;DHT22;41604;43.142;20.512;2024-03-23T06:15:07;154.40;2252.80
55701;DHT22;41604;43.142;20.512;2024-03-23T06:17:38;154.50;2227.20
55701;DHT22;41604;43.142;20.512;2024-03-23T06:20:04;154.50;2252.80
55701;DHT22;41604;43.142;20.512;2024-03-23T06:22:31;154.50;2227.20
55701;DHT22;41604;43.142;20.512;2024-03-23T06:24:57;179.30;2227.20
55701;DHT22;41604;43.142;20.512;2024-03-23T06:27:23;179.60;2201.60
55701;DHT22;41604;43.142;20.512;2024-03-23T06:29:48;179.60;2201.60
55701;DHT22;41604;43.142;20.512;2024-03-23T06:32:14;179.80;2176.00
55701;DHT22;41604;43.142;20.512;2024-03-23T06:34:42;179.90;2176.00
55701;DHT22;41604;43.142;20.512;2024-03-23T06:37:08;179.90;2176.00
55701;DHT22;41604;43.142;20.512;2024-03-23T06:39:35;204.90;2252.80
55701;DHT22;41604;43.142;20.512;2024-03-23T23:41:32;282.00;1894.40
55701;DHT22;41604;43.142;20.512;2024-03-23T23:43:58;333.00;2048.00
55701;DHT22;41604;43.142;20.512;2024-03-23T23:46:24;332.80;2073.60
55701;DHT22;41604;43.142;20.512;2024-03-23T23:48:50;308.10;2048.00
55701;DHT22;41604;43.142;20.512;2024-03-23T23:51:15;308.10;2048.00
55701;DHT22;41604;43.142;20.512;2024-03-23T23:53:41;308.10;2048.00
55701;DHT22;41604;43.142;20.512;2024-03-23T23:56:09;308.10;2048.00
55701;DHT22;41604;43.142;20.512;2024-03-23T23:58:34;308.00;2048.00
